13NC weather

Oak Grove Mcolf Airport
Pollocksville, North Carolina, United States

Public forecast

Using degrees Fahrenheit for public forecast. Weather courtesy of forecast.io.

METAR (pilot weather report)

Closest report is Coastal Carolina Regional Airport, 10.4 nm (19.3 km) ENE. Retrieved 2019/06/20 12:54 UTC (43 minutes ago):

KEWN 201254Z 23007KT 10SM SCT012 26/24 A2979 RMK AO2 SLP089 T02610239

TAF (pilot weather forecast)

Closest forecast is Coastal Carolina Regional Airport, 10.4 nm (19.3 km) ENE. Retrieved 2019/06/20 12:42 UTC (55 minutes ago):

TAF KEWN 201134Z 2012/2112 21007KT P6SM SCT008 BKN015 FM201300 23009G15KT P6SM FEW040 SCT250 FM201700 24015G17KT P6SM SCT040 FM202000 21012G25KT P6SM VCTS SCT025CB BKN050 FM210500 25009G15KT P6SM SCT250